Time;durP1;ratioP1;P1;durP2;ratioP2;P2;SDS_P1;SDS_P2;PMS_P1;PMS_P2;Temp;Humidity;BMP_temperature;BMP_pressure;BME280_temperature;BME280_humidity;BME280_pressure;Samples;Min_cycle;Max_cycle;Signal;HPM_P1;HPM_P2
2021/12/15 00:02:25;;;;;;;343.95;66.90;;;;;;;;;;5071134;28;20311;-68
2021/12/15 00:04:55;;;;;;;347.30;66.32;;;;;;;;;;5071045;28;20224;-67
2021/12/15 00:07:24;;;;;;;350.38;71.72;;;;;;;;;;5070964;28;20687;-67
2021/12/15 00:09:51;;;;;;;359.77;74.53;;;;;;;;;;5070642;28;20287;-67
2021/12/15 00:12:19;;;;;;;323.33;65.63;;;;;;;;;;5071359;28;20204;-66
2021/12/15 00:14:47;;;;;;;289.85;62.13;;;;;;;;;;5071001;28;20212;-67
2021/12/15 00:17:15;;;;;;;319.77;65.55;;;;;;;;;;5064558;28;20251;-67
2021/12/15 00:19:44;;;;;;;329.38;67.18;;;;;;;;;;5070782;28;20201;-67
2021/12/15 00:22:13;;;;;;;312.50;63.95;;;;;;;;;;5070811;28;20291;-67
2021/12/15 00:24:40;;;;;;;343.00;66.85;;;;;;;;;;5070991;28;20366;-67
2021/12/15 00:27:08;;;;;;;362.70;68.70;;;;;;;;;;5070823;28;20700;-67
2021/12/15 00:29:36;;;;;;;390.52;71.95;;;;;;;;;;5070881;28;20292;-68
2021/12/15 00:32:04;;;;;;;362.05;66.57;;;;;;;;;;5070938;28;20204;-67
2021/12/15 00:34:33;;;;;;;348.45;69.72;;;;;;;;;;5069781;28;20216;-67
2021/12/15 00:37:01;;;;;;;382.48;71.57;;;;;;;;;;5070981;28;20212;-66
2021/12/15 00:39:31;;;;;;;350.55;71.95;;;;;;;;;;5070905;28;20236;-67
2021/12/15 00:41:59;;;;;;;310.75;61.72;;;;;;;;;;5063962;28;20656;-67
2021/12/15 00:44:27;;;;;;;336.17;65.63;;;;;;;;;;5070511;28;20712;-67
2021/12/15 00:46:55;;;;;;;355.35;70.78;;;;;;;;;;5070578;28;20291;-66
2021/12/15 00:49:23;;;;;;;356.85;67.88;;;;;;;;;;5070862;28;20215;-67
2021/12/15 00:51:51;;;;;;;341.80;73.50;;;;;;;;;;5070312;28;21072;-66
2021/12/15 00:54:22;;;;;;;321.00;65.53;;;;;;;;;;5070778;28;20216;-66
2021/12/15 00:56:50;;;;;;;371.95;69.78;;;;;;;;;;5070647;28;20618;-67
2021/12/15 00:59:17;;;;;;;382.08;72.28;;;;;;;;;;5070494;28;20219;-66
2021/12/15 01:01:45;;;;;;;380.52;72.93;;;;;;;;;;5070207;28;20269;-67
2021/12/15 01:04:13;;;;;;;390.17;72.32;;;;;;;;;;5070632;28;20246;-67
2021/12/15 01:06:44;;;;;;;365.15;68.32;;;;;;;;;;5064262;28;20563;-67
2021/12/15 01:09:14;;;;;;;376.38;71.25;;;;;;;;;;5070553;28;20204;-67
2021/12/15 01:12:04;;;;;;;393.00;75.72;;;;;;;;;;5070059;28;20240;-67
2021/12/15 01:19:46;;;;;;;392.17;74.15;;;;;;;;;;5070395;28;20219;-67
2021/12/15 01:20:09;;;;;;;358.38;69.95;;;;;;;;;;5070533;28;20233;-67
2021/12/15 01:22:42;;;;;;;363.05;68.20;;;;;;;;;;5070473;28;20598;-67
2021/12/15 01:25:12;;;;;;;363.50;72.78;;;;;;;;;;5070409;28;20290;-67
2021/12/15 01:27:41;;;;;;;340.05;66.78;;;;;;;;;;5070243;28;20264;-67
2021/12/15 01:30:11;;;;;;;362.08;69.32;;;;;;;;;;5070574;28;20240;-66
2021/12/15 01:32:38;;;;;;;373.77;72.57;;;;;;;;;;5070247;28;20734;-67
2021/12/15 01:35:06;;;;;;;378.33;71.90;;;;;;;;;;5070083;28;20295;-68
2021/12/15 01:37:33;;;;;;;383.45;71.38;;;;;;;;;;5070132;28;20570;-66
2021/12/15 01:40:03;;;;;;;386.75;71.50;;;;;;;;;;5070342;28;20241;-69
2021/12/15 01:42:33;;;;;;;379.13;69.20;;;;;;;;;;5063629;28;20235;-66
2021/12/15 01:48:00;;;;;;;391.05;75.65;;;;;;;;;;5073604;28;20223;-66
2021/12/15 01:50:27;;;;;;;399.83;73.72;;;;;;;;;;5073956;28;20349;-67
2021/12/15 01:52:55;;;;;;;397.75;72.25;;;;;;;;;;5073543;28;20201;-66
2021/12/15 01:55:24;;;;;;;387.27;73.22;;;;;;;;;;5073636;28;20232;-68
2021/12/15 01:57:52;;;;;;;393.35;77.13;;;;;;;;;;5073257;28;20243;-67
2021/12/15 02:00:24;;;;;;;367.50;69.90;;;;;;;;;;5073668;28;20240;-66
2021/12/15 02:02:51;;;;;;;371.70;72.45;;;;;;;;;;5073761;28;20605;-67
2021/12/15 02:05:19;;;;;;;391.23;71.90;;;;;;;;;;5073401;28;20236;-66
2021/12/15 02:07:49;;;;;;;383.75;71.07;;;;;;;;;;5073218;28;20247;-67
2021/12/15 02:10:18;;;;;;;386.42;70.10;;;;;;;;;;5073134;28;20297;-67
2021/12/15 02:12:46;;;;;;;365.40;73.30;;;;;;;;;;5073617;28;20217;-67
2021/12/15 02:15:14;;;;;;;377.27;71.70;;;;;;;;;;5073389;28;20259;-67
2021/12/15 02:17:53;;;;;;;380.08;76.68;;;;;;;;;;5073172;28;20615;-67
2021/12/15 02:20:21;;;;;;;362.67;70.97;;;;;;;;;;5073158;28;20232;-66
2021/12/15 02:22:50;;;;;;;373.27;73.53;;;;;;;;;;5073090;28;20212;-67
2021/12/15 02:25:23;;;;;;;359.38;69.72;;;;;;;;;;5073475;28;20256;-67
2021/12/15 02:27:52;;;;;;;373.20;75.72;;;;;;;;;;5072812;28;20294;-67
2021/12/15 02:30:38;;;;;;;379.40;72.65;;;;;;;;;;5073413;28;20205;-67
2021/12/15 02:33:24;;;;;;;341.20;69.00;;;;;;;;;;5072901;28;20213;-67
2021/12/15 02:38:41;;;;;;;350.55;68.65;;;;;;;;;;5072935;28;20212;-67
2021/12/15 02:41:19;;;;;;;343.60;70.30;;;;;;;;;;5072908;28;20231;-67
2021/12/15 02:43:47;;;;;;;350.08;74.70;;;;;;;;;;5072433;28;20204;-67
2021/12/15 02:46:15;;;;;;;333.40;66.90;;;;;;;;;;5072963;28;20212;-66
2021/12/15 02:48:43;;;;;;;338.02;68.85;;;;;;;;;;5073037;28;20287;-67
2021/12/15 02:51:11;;;;;;;334.27;69.00;;;;;;;;;;5072936;28;20285;-66
2021/12/15 02:53:40;;;;;;;353.73;71.07;;;;;;;;;;5072225;28;20712;-71
2021/12/15 02:56:08;;;;;;;322.92;67.80;;;;;;;;;;5071703;28;20243;-68
2021/12/15 02:58:37;;;;;;;337.15;70.88;;;;;;;;;;5072272;28;20211;-67
2021/12/15 03:01:12;;;;;;;322.85;69.25;;;;;;;;;;5072553;28;20617;-66
2021/12/15 03:04:07;;;;;;;331.00;71.07;;;;;;;;;;5072201;28;20246;-67
2021/12/15 03:06:41;;;;;;;395.05;77.53;;;;;;;;;;5072232;28;20282;-67
2021/12/15 03:09:41;;;;;;;386.50;74.68;;;;;;;;;;5072455;28;20291;-66
2021/12/15 03:17:35;;;;;;;346.70;72.35;;;;;;;;;;5072154;28;20596;-67
2021/12/15 03:20:02;;;;;;;319.27;70.40;;;;;;;;;;5071950;28;20658;-67
2021/12/15 03:22:30;;;;;;;342.70;74.97;;;;;;;;;;5071974;28;20460;-66
2021/12/15 03:24:59;;;;;;;349.90;73.68;;;;;;;;;;5071915;28;20668;-67
2021/12/15 03:33:16;;;;;;;349.00;72.30;;;;;;;;;;5071700;28;20270;-67
2021/12/15 03:36:04;;;;;;;349.30;73.22;;;;;;;;;;5029372;28;20218;-66
2021/12/15 03:38:33;;;;;;;366.27;76.18;;;;;;;;;;5063336;28;20223;-67
2021/12/15 03:41:02;;;;;;;394.77;82.15;;;;;;;;;;5071602;28;20223;-66
2021/12/15 03:43:31;;;;;;;376.92;77.82;;;;;;;;;;5064964;28;20239;-66
2021/12/15 03:46:01;;;;;;;382.45;78.47;;;;;;;;;;5071218;28;20236;-67
2021/12/15 03:48:30;;;;;;;374.13;77.03;;;;;;;;;;5071465;28;20212;-66
2021/12/15 03:50:58;;;;;;;362.25;73.00;;;;;;;;;;5071327;28;20239;-67
2021/12/15 03:53:26;;;;;;;375.23;75.57;;;;;;;;;;5071475;28;20656;-66
2021/12/15 03:55:54;;;;;;;390.63;81.07;;;;;;;;;;5071080;28;20265;-66
2021/12/15 03:58:25;;;;;;;402.27;85.45;;;;;;;;;;5071270;28;20685;-67
2021/12/15 04:00:56;;;;;;;388.15;77.25;;;;;;;;;;5071251;28;20266;-67
2021/12/15 04:03:25;;;;;;;371.67;74.07;;;;;;;;;;5071432;28;20609;-68
2021/12/15 04:05:53;;;;;;;390.15;85.05;;;;;;;;;;5070950;28;20315;-69
2021/12/15 04:08:21;;;;;;;367.08;73.95;;;;;;;;;;5071077;28;20204;-67
2021/12/15 04:10:49;;;;;;;374.50;76.18;;;;;;;;;;5070953;28;20760;-67
2021/12/15 04:13:16;;;;;;;372.65;77.85;;;;;;;;;;5070891;28;20270;-67
2021/12/15 04:15:53;;;;;;;382.67;78.13;;;;;;;;;;5070784;28;20212;-66
2021/12/15 04:18:21;;;;;;;375.40;74.95;;;;;;;;;;5071234;28;20291;-66
2021/12/15 04:20:48;;;;;;;385.00;78.10;;;;;;;;;;5070879;28;20639;-67
2021/12/15 04:23:22;;;;;;;381.52;77.65;;;;;;;;;;5071238;28;20208;-67
2021/12/15 04:25:50;;;;;;;399.35;86.05;;;;;;;;;;5070549;28;20266;-66
2021/12/15 04:28:19;;;;;;;399.42;78.65;;;;;;;;;;5070819;28;20681;-67
2021/12/15 04:30:50;;;;;;;382.23;77.53;;;;;;;;;;5070984;28;20267;-67
2021/12/15 04:33:19;;;;;;;389.23;81.10;;;;;;;;;;5070942;28;20242;-67
2021/12/15 04:35:47;;;;;;;393.52;81.15;;;;;;;;;;5070628;28;20200;-67
2021/12/15 04:38:15;;;;;;;389.98;78.25;;;;;;;;;;5070599;28;20236;-67
2021/12/15 04:40:43;;;;;;;418.20;78.53;;;;;;;;;;5070643;28;20705;-69
2021/12/15 04:43:12;;;;;;;399.00;78.45;;;;;;;;;;5064187;28;20258;-66
2021/12/15 04:45:41;;;;;;;399.48;78.32;;;;;;;;;;5070632;28;20293;-67
2021/12/15 04:48:12;;;;;;;388.55;76.43;;;;;;;;;;5070738;28;20295;-66
2021/12/15 04:50:40;;;;;;;376.63;76.97;;;;;;;;;;5070562;28;20204;-67
2021/12/15 04:53:09;;;;;;;392.60;76.10;;;;;;;;;;5070932;28;20215;-66
2021/12/15 04:55:38;;;;;;;395.05;75.22;;;;;;;;;;5070814;28;20208;-67
2021/12/15 04:58:07;;;;;;;404.65;79.10;;;;;;;;;;5070747;28;20807;-67
2021/12/15 05:00:39;;;;;;;388.58;76.93;;;;;;;;;;5070616;28;20663;-67
2021/12/15 05:03:06;;;;;;;400.25;78.70;;;;;;;;;;5070063;28;20716;-68
2021/12/15 05:05:37;;;;;;;405.92;78.88;;;;;;;;;;5070652;28;20228;-66
2021/12/15 05:08:08;;;;;;;393.95;79.03;;;;;;;;;;5070891;28;20587;-67
2021/12/15 05:10:35;;;;;;;409.83;78.60;;;;;;;;;;5070691;28;20273;-66
2021/12/15 05:13:03;;;;;;;398.88;78.50;;;;;;;;;;5070625;28;20644;-67
2021/12/15 05:15:31;;;;;;;400.02;78.55;;;;;;;;;;5070387;28;20205;-67
2021/12/15 05:18:00;;;;;;;393.80;78.60;;;;;;;;;;5070132;28;20235;-67
2021/12/15 05:20:28;;;;;;;388.10;75.88;;;;;;;;;;5072167;28;20283;-67
2021/12/15 05:22:57;;;;;;;390.13;74.93;;;;;;;;;;5074397;28;20673;-66
2021/12/15 05:25:29;;;;;;;394.73;77.40;;;;;;;;;;5074234;28;20333;-67
2021/12/15 05:27:57;;;;;;;413.80;79.05;;;;;;;;;;5073968;28;20637;-67
2021/12/15 05:30:24;;;;;;;412.45;78.78;;;;;;;;;;5073981;28;20571;-66
2021/12/15 05:32:52;;;;;;;368.05;75.15;;;;;;;;;;5073982;28;20239;-67
2021/12/15 05:35:23;;;;;;;399.65;73.75;;;;;;;;;;5073911;28;20208;-66
2021/12/15 05:37:51;;;;;;;419.92;81.53;;;;;;;;;;5073752;28;20217;-67
2021/12/15 05:40:22;;;;;;;416.77;78.05;;;;;;;;;;5074065;28;20283;-66
2021/12/15 05:42:50;;;;;;;411.27;75.90;;;;;;;;;;5073848;28;20736;-67
2021/12/15 05:45:17;;;;;;;379.23;73.18;;;;;;;;;;5074046;28;20294;-67
2021/12/15 05:47:45;;;;;;;395.40;74.60;;;;;;;;;;5073496;28;20236;-67
2021/12/15 05:50:15;;;;;;;404.15;76.68;;;;;;;;;;5073754;28;20960;-66
2021/12/15 05:52:43;;;;;;;400.05;76.25;;;;;;;;;;5073989;28;20208;-68
2021/12/15 05:55:12;;;;;;;415.00;79.75;;;;;;;;;;5073781;28;20216;-67
2021/12/15 05:57:41;;;;;;;410.35;78.50;;;;;;;;;;5073740;28;20211;-66
2021/12/15 06:00:11;;;;;;;395.02;75.55;;;;;;;;;;5073543;28;20651;-66
2021/12/15 06:02:38;;;;;;;408.77;73.85;;;;;;;;;;5073391;28;20361;-66
2021/12/15 06:05:06;;;;;;;404.63;76.75;;;;;;;;;;5073446;28;20232;-67
2021/12/15 06:07:34;;;;;;;402.20;76.47;;;;;;;;;;5073508;28;20240;-67
2021/12/15 06:10:02;;;;;;;401.20;73.28;;;;;;;;;;5073167;28;20272;-67
2021/12/15 06:12:29;;;;;;;401.85;74.63;;;;;;;;;;5073971;28;20637;-66
2021/12/15 06:14:58;;;;;;;395.33;74.68;;;;;;;;;;5073283;28;20673;-67
2021/12/15 06:17:26;;;;;;;400.80;77.57;;;;;;;;;;5073319;28;20705;-66
2021/12/15 06:19:54;;;;;;;406.73;79.30;;;;;;;;;;5072896;28;20236;-66
2021/12/15 06:22:26;;;;;;;391.27;74.63;;;;;;;;;;5073172;28;20208;-68
2021/12/15 06:24:53;;;;;;;393.33;74.60;;;;;;;;;;5073378;28;20262;-67
2021/12/15 06:27:21;;;;;;;385.95;74.15;;;;;;;;;;5073236;28;20239;-66
2021/12/15 06:29:49;;;;;;;404.98;81.00;;;;;;;;;;5072972;28;20269;-67
2021/12/15 06:32:20;;;;;;;399.38;75.15;;;;;;;;;;5066620;28;20299;-66
2021/12/15 06:34:47;;;;;;;386.45;73.75;;;;;;;;;;5066121;28;20700;-67
2021/12/15 06:37:15;;;;;;;405.45;78.10;;;;;;;;;;5072898;28;20238;-67
2021/12/15 06:39:44;;;;;;;398.45;72.70;;;;;;;;;;5072868;28;20216;-67
2021/12/15 06:42:12;;;;;;;394.30;75.13;;;;;;;;;;5072846;28;20228;-67
2021/12/15 06:44:41;;;;;;;400.35;75.10;;;;;;;;;;5072825;28;20208;-66
2021/12/15 06:58:15;;;;;;;378.38;70.43;;;;;;;;;;5072577;28;20216;-67
2021/12/15 07:00:48;;;;;;;358.17;71.40;;;;;;;;;;5072603;28;20795;-66
2021/12/15 07:03:17;;;;;;;391.15;73.60;;;;;;;;;;5072124;28;20650;-66
2021/12/15 07:05:46;;;;;;;372.52;72.45;;;;;;;;;;5072045;28;20274;-66
2021/12/15 07:08:17;;;;;;;381.27;74.07;;;;;;;;;;5072108;28;20236;-67
2021/12/15 07:10:46;;;;;;;380.15;73.22;;;;;;;;;;5072326;28;20323;-68
2021/12/15 07:13:14;;;;;;;380.45;71.63;;;;;;;;;;5072683;28;20223;-67
2021/12/15 07:15:42;;;;;;;394.67;76.22;;;;;;;;;;5071852;28;20278;-66
2021/12/15 07:18:11;;;;;;;403.20;77.18;;;;;;;;;;5072113;28;20243;-66
2021/12/15 07:20:45;;;;;;;386.25;71.57;;;;;;;;;;5071952;28;20204;-67
2021/12/15 07:23:15;;;;;;;380.77;72.90;;;;;;;;;;5072452;28;20212;-68
2021/12/15 07:25:46;;;;;;;377.13;72.63;;;;;;;;;;5071571;28;20282;-68
2021/12/15 07:28:14;;;;;;;372.92;72.13;;;;;;;;;;5071965;28;20223;-68
2021/12/15 07:30:44;;;;;;;381.55;73.97;;;;;;;;;;5071919;28;20243;-66
2021/12/15 07:33:12;;;;;;;388.33;74.28;;;;;;;;;;5071811;28;20223;-69
2021/12/15 07:35:41;;;;;;;328.60;67.90;;;;;;;;;;5071823;28;20212;-67
2021/12/15 07:38:08;;;;;;;352.83;74.15;;;;;;;;;;5071944;28;20213;-67
2021/12/15 07:40:37;;;;;;;377.70;74.40;;;;;;;;;;5071702;28;20262;-67
2021/12/15 07:43:08;;;;;;;398.52;75.07;;;;;;;;;;5071357;28;20212;-66
2021/12/15 07:45:38;;;;;;;374.45;74.55;;;;;;;;;;5065250;28;20236;-68
2021/12/15 07:48:06;;;;;;;379.08;71.72;;;;;;;;;;5071347;28;20247;-66
2021/12/15 07:50:38;;;;;;;396.95;75.72;;;;;;;;;;5071432;28;20643;-67
2021/12/15 07:53:06;;;;;;;370.73;73.63;;;;;;;;;;5071847;28;20268;-67
2021/12/15 07:55:34;;;;;;;372.15;72.25;;;;;;;;;;5071474;28;20258;-67
2021/12/15 07:58:08;;;;;;;382.67;73.95;;;;;;;;;;5071374;28;20216;-67
2021/12/15 08:00:35;;;;;;;399.15;77.85;;;;;;;;;;5071631;28;20669;-66
2021/12/15 08:03:03;;;;;;;385.98;74.47;;;;;;;;;;5070921;28;20298;-67
2021/12/15 08:05:30;;;;;;;407.58;76.90;;;;;;;;;;5071279;28;20231;-66
2021/12/15 08:07:58;;;;;;;379.05;72.47;;;;;;;;;;5071176;28;20201;-67
2021/12/15 08:10:26;;;;;;;374.13;72.47;;;;;;;;;;5070976;28;20770;-67
2021/12/15 08:12:53;;;;;;;403.55;79.85;;;;;;;;;;5071037;28;20215;-67
2021/12/15 08:15:22;;;;;;;364.02;73.53;;;;;;;;;;5071263;28;20213;-67
2021/12/15 08:17:52;;;;;;;357.65;76.93;;;;;;;;;;5071346;28;20597;-66
2021/12/15 08:20:20;;;;;;;351.98;71.50;;;;;;;;;;5071208;28;20223;-66
2021/12/15 08:22:50;;;;;;;389.27;75.55;;;;;;;;;;5071000;28;20261;-67
2021/12/15 08:25:20;;;;;;;385.02;76.65;;;;;;;;;;5070767;28;20201;-67
2021/12/15 08:27:50;;;;;;;349.58;74.20;;;;;;;;;;5070672;28;20209;-67
2021/12/15 08:30:20;;;;;;;380.73;74.63;;;;;;;;;;5070831;28;20291;-67
2021/12/15 08:32:50;;;;;;;409.38;76.88;;;;;;;;;;5070913;28;20692;-67
2021/12/15 08:35:19;;;;;;;391.20;74.68;;;;;;;;;;5070699;28;20303;-67
2021/12/15 08:37:47;;;;;;;386.33;78.78;;;;;;;;;;5070519;28;20716;-70
2021/12/15 08:40:15;;;;;;;389.08;74.07;;;;;;;;;;5070830;28;20212;-67
2021/12/15 08:42:42;;;;;;;377.27;73.53;;;;;;;;;;5070791;28;20458;-67
2021/12/15 08:45:10;;;;;;;349.27;71.57;;;;;;;;;;5070880;28;20209;-66
2021/12/15 08:47:39;;;;;;;387.80;75.55;;;;;;;;;;5070198;28;20237;-73
2021/12/15 08:50:13;;;;;;;397.23;75.68;;;;;;;;;;5070657;28;20285;-66
2021/12/15 08:52:40;;;;;;;384.92;74.43;;;;;;;;;;5070653;28;20210;-67
2021/12/15 08:55:11;;;;;;;389.17;75.07;;;;;;;;;;5072188;28;20208;-67
2021/12/15 08:57:47;;;;;;;396.98;71.75;;;;;;;;;;5074597;28;20219;-68
2021/12/15 09:00:16;;;;;;;365.30;72.47;;;;;;;;;;5074919;28;20618;-67
2021/12/15 09:02:43;;;;;;;397.48;77.78;;;;;;;;;;5074235;28;20293;-69
2021/12/15 09:05:20;;;;;;;387.63;72.20;;;;;;;;;;5074938;28;20200;-66
2021/12/15 09:07:48;;;;;;;383.02;79.47;;;;;;;;;;5074402;28;20263;-67
2021/12/15 09:10:17;;;;;;;421.58;81.05;;;;;;;;;;5074388;28;20786;-67
2021/12/15 09:12:45;;;;;;;407.60;75.95;;;;;;;;;;5074619;28;20207;-67
2021/12/15 09:15:16;;;;;;;413.02;76.85;;;;;;;;;;5074551;28;20258;-67
2021/12/15 09:17:44;;;;;;;408.30;75.47;;;;;;;;;;5067988;28;20661;-67
2021/12/15 09:20:15;;;;;;;409.65;74.60;;;;;;;;;;5074339;28;20774;-66
2021/12/15 09:22:44;;;;;;;407.70;77.22;;;;;;;;;;5074370;28;20251;-68
2021/12/15 09:25:13;;;;;;;409.67;76.72;;;;;;;;;;5074232;28;20746;-68
2021/12/15 09:27:41;;;;;;;403.95;77.30;;;;;;;;;;5073822;28;20316;-66
2021/12/15 09:30:12;;;;;;;403.20;75.68;;;;;;;;;;5074161;28;20214;-67
2021/12/15 09:32:40;;;;;;;410.17;78.25;;;;;;;;;;5074142;28;20212;-66
2021/12/15 09:35:09;;;;;;;412.98;77.70;;;;;;;;;;5074140;28;20212;-67
2021/12/15 09:37:38;;;;;;;410.38;76.15;;;;;;;;;;5074060;28;20289;-66
2021/12/15 09:40:06;;;;;;;407.40;75.30;;;;;;;;;;5073903;28;20657;-66
2021/12/15 09:42:37;;;;;;;405.98;76.28;;;;;;;;;;5073792;28;20209;-69
2021/12/15 09:45:20;;;;;;;414.85;76.43;;;;;;;;;;5074304;28;20266;-69
2021/12/15 09:48:01;;;;;;;421.25;76.10;;;;;;;;;;5073527;28;20290;-67
2021/12/15 10:04:26;;;;;;;401.73;73.30;;;;;;;;;;5055820;28;20232;-67
2021/12/15 10:07:17;;;;;;;412.77;76.30;;;;;;;;;;5073020;28;20821;-67
2021/12/15 10:18:27;;;;;;;400.45;73.25;;;;;;;;;;5073454;28;20211;-67
2021/12/15 10:20:55;;;;;;;404.08;77.10;;;;;;;;;;5067668;28;20242;-66
2021/12/15 10:23:29;;;;;;;413.25;79.95;;;;;;;;;;5066514;28;20205;-67
2021/12/15 10:25:58;;;;;;;410.63;79.10;;;;;;;;;;5073013;28;20664;-67
2021/12/15 10:28:27;;;;;;;417.60;77.53;;;;;;;;;;5073014;28;20295;-66
2021/12/15 10:30:55;;;;;;;405.35;76.07;;;;;;;;;;5073165;28;20270;-66
2021/12/15 10:33:24;;;;;;;405.65;76.82;;;;;;;;;;5073435;28;20212;-67
2021/12/15 10:35:54;;;;;;;401.38;79.50;;;;;;;;;;5072835;28;20263;-68
2021/12/15 10:38:25;;;;;;;403.52;75.88;;;;;;;;;;5073130;28;20580;-67
2021/12/15 10:41:00;;;;;;;414.65;77.22;;;;;;;;;;5072764;28;20211;-67
2021/12/15 10:43:30;;;;;;;408.85;77.63;;;;;;;;;;5073044;28;20212;-67
2021/12/15 10:45:59;;;;;;;418.23;80.40;;;;;;;;;;5072788;28;20213;-67
2021/12/15 10:48:37;;;;;;;420.23;81.22;;;;;;;;;;5072786;28;20197;-66
2021/12/15 10:51:05;;;;;;;407.58;78.60;;;;;;;;;;5072828;28;20313;-68
2021/12/15 10:53:35;;;;;;;411.75;80.32;;;;;;;;;;5072850;28;20200;-67
2021/12/15 10:56:10;;;;;;;403.17;80.55;;;;;;;;;;5072515;28;20281;-67
2021/12/15 10:58:39;;;;;;;399.50;72.60;;;;;;;;;;5072518;28;20204;-67
2021/12/15 11:01:08;;;;;;;406.85;75.78;;;;;;;;;;5072438;28;20265;-67
2021/12/15 11:03:37;;;;;;;405.98;74.55;;;;;;;;;;5071933;28;20231;-67
2021/12/15 11:06:19;;;;;;;401.75;75.00;;;;;;;;;;5065600;28;20258;-67
2021/12/15 11:08:47;;;;;;;407.55;76.22;;;;;;;;;;5066979;28;20208;-66
2021/12/15 11:11:27;;;;;;;394.83;76.80;;;;;;;;;;5072241;28;20324;-67
2021/12/15 11:13:55;;;;;;;365.25;76.50;;;;;;;;;;5072135;28;20209;-68
2021/12/15 11:16:30;;;;;;;378.05;72.97;;;;;;;;;;5072150;28;20223;-67
2021/12/15 11:19:01;;;;;;;405.55;75.53;;;;;;;;;;5071566;28;20204;-67
2021/12/15 11:21:32;;;;;;;397.25;74.13;;;;;;;;;;5072375;28;20693;-67
2021/12/15 11:24:01;;;;;;;412.02;77.07;;;;;;;;;;5065385;28;20268;-66
2021/12/15 11:26:31;;;;;;;411.30;78.30;;;;;;;;;;5071928;28;20224;-66
2021/12/15 11:28:59;;;;;;;428.85;83.82;;;;;;;;;;5071806;28;20585;-66
2021/12/15 11:31:28;;;;;;;421.95;82.68;;;;;;;;;;5071551;28;20204;-68
2021/12/15 11:33:57;;;;;;;408.48;77.15;;;;;;;;;;5071670;28;20217;-71
2021/12/15 11:36:31;;;;;;;422.27;79.25;;;;;;;;;;5071743;28;20303;-67
2021/12/15 11:39:00;;;;;;;420.92;81.20;;;;;;;;;;5071618;28;20204;-66
2021/12/15 11:41:29;;;;;;;423.90;80.45;;;;;;;;;;5071834;28;20259;-68
2021/12/15 11:44:00;;;;;;;411.55;82.53;;;;;;;;;;5070946;28;20225;-67
2021/12/15 11:46:30;;;;;;;385.95;74.60;;;;;;;;;;5071531;28;20608;-68
2021/12/15 11:48:59;;;;;;;353.17;73.03;;;;;;;;;;5071504;28;20204;-67
2021/12/15 11:51:28;;;;;;;376.25;76.43;;;;;;;;;;5071345;28;20208;-67
2021/12/15 11:53:55;;;;;;;324.27;72.18;;;;;;;;;;5071020;28;20741;-68
2021/12/15 11:56:26;;;;;;;321.05;70.25;;;;;;;;;;5064666;28;20216;-69
2021/12/15 11:58:55;;;;;;;356.08;73.70;;;;;;;;;;5071483;28;20863;-66
2021/12/15 12:01:45;;;;;;;313.08;69.47;;;;;;;;;;5071238;28;20212;-68
2021/12/15 12:04:14;;;;;;;340.17;72.93;;;;;;;;;;5065254;28;20229;-68
2021/12/15 12:06:42;;;;;;;313.95;66.18;;;;;;;;;;5071139;28;20818;-67
2021/12/15 12:09:09;;;;;;;338.67;70.78;;;;;;;;;;5064466;28;20287;-67
2021/12/15 12:11:40;;;;;;;376.75;75.90;;;;;;;;;;5071048;28;20351;-67
2021/12/15 12:14:17;;;;;;;366.88;70.82;;;;;;;;;;5071071;28;20287;-67
2021/12/15 12:16:47;;;;;;;367.33;72.32;;;;;;;;;;5071471;28;20214;-67
2021/12/15 12:19:15;;;;;;;382.60;72.40;;;;;;;;;;5070950;28;20211;-67
2021/12/15 12:21:42;;;;;;;408.75;77.63;;;;;;;;;;5070083;28;20254;-68
2021/12/15 12:24:16;;;;;;;423.75;78.72;;;;;;;;;;5070397;28;20208;-67
2021/12/15 12:26:44;;;;;;;408.90;78.32;;;;;;;;;;5070430;28;20200;-68
2021/12/15 12:29:12;;;;;;;386.90;75.63;;;;;;;;;;5070129;28;20235;-67
2021/12/15 12:31:42;;;;;;;417.80;79.78;;;;;;;;;;5070065;28;20200;-67
2021/12/15 12:34:11;;;;;;;411.33;80.50;;;;;;;;;;5070696;28;20626;-67
2021/12/15 12:36:39;;;;;;;379.52;74.70;;;;;;;;;;5070706;28;20212;-68
2021/12/15 12:39:08;;;;;;;405.05;75.90;;;;;;;;;;5070895;28;20690;-67
2021/12/15 12:41:40;;;;;;;420.17;80.07;;;;;;;;;;5064353;28;20211;-66
2021/12/15 12:44:10;;;;;;;386.45;73.15;;;;;;;;;;5064249;28;20261;-67
2021/12/15 12:46:43;;;;;;;395.75;74.50;;;;;;;;;;5070697;28;20220;-67
2021/12/15 12:49:30;;;;;;;386.98;73.53;;;;;;;;;;5070760;28;20207;-67
2021/12/15 13:00:32;;;;;;;375.95;72.95;;;;;;;;;;5070571;28;20254;-68
2021/12/15 13:03:06;;;;;;;402.90;74.05;;;;;;;;;;5070444;28;20652;-67
2021/12/15 13:05:39;;;;;;;357.55;71.03;;;;;;;;;;5070743;28;20215;-67
2021/12/15 13:08:10;;;;;;;355.55;71.20;;;;;;;;;;5070474;28;20232;-67
2021/12/15 13:11:01;;;;;;;384.45;73.43;;;;;;;;;;5070528;28;20609;-68
2021/12/15 13:13:29;;;;;;;372.77;72.40;;;;;;;;;;5066975;28;20220;-67
2021/12/15 13:15:59;;;;;;;353.85;75.68;;;;;;;;;;5070371;28;20696;-67
2021/12/15 13:18:29;;;;;;;347.65;69.57;;;;;;;;;;5070599;28;20307;-67
2021/12/15 13:21:06;;;;;;;357.45;71.07;;;;;;;;;;5070484;28;20700;-67
2021/12/15 13:23:49;;;;;;;351.75;72.35;;;;;;;;;;5070345;28;20200;-67
2021/12/15 13:29:26;;;;;;;336.00;68.38;;;;;;;;;;5070399;28;20211;-67
2021/12/15 13:31:55;;;;;;;355.10;72.03;;;;;;;;;;5070713;28;20208;-67
2021/12/15 13:34:36;;;;;;;376.15;71.30;;;;;;;;;;5063573;28;20223;-69
2021/12/15 13:37:09;;;;;;;373.92;72.88;;;;;;;;;;5064362;28;20684;-68
2021/12/15 13:39:47;;;;;;;350.85;70.20;;;;;;;;;;5064420;28;20220;-67
2021/12/15 13:42:34;;;;;;;322.67;66.47;;;;;;;;;;5067739;28;20208;-67
2021/12/15 13:45:04;;;;;;;350.13;69.75;;;;;;;;;;5074001;28;20599;-67
2021/12/15 13:47:31;;;;;;;326.92;67.60;;;;;;;;;;5073748;28;20239;-67
2021/12/15 13:49:59;;;;;;;350.35;68.45;;;;;;;;;;5073661;28;20219;-67
2021/12/15 13:52:31;;;;;;;346.05;70.05;;;;;;;;;;5073623;28;20583;-67
2021/12/15 13:55:05;;;;;;;343.60;68.82;;;;;;;;;;5073918;28;20572;-68
2021/12/15 13:57:39;;;;;;;328.98;66.93;;;;;;;;;;5073730;28;20223;-68
2021/12/15 14:00:14;;;;;;;366.67;72.25;;;;;;;;;;5073646;28;20207;-67
2021/12/15 14:02:43;;;;;;;356.05;70.88;;;;;;;;;;5073262;28;20763;-67
2021/12/15 14:05:22;;;;;;;346.23;68.38;;;;;;;;;;5073847;28;20231;-67
2021/12/15 14:07:52;;;;;;;339.20;72.35;;;;;;;;;;5068138;28;20700;-67
2021/12/15 14:10:37;;;;;;;359.92;69.40;;;;;;;;;;5073551;28;20331;-68
2021/12/15 14:13:07;;;;;;;323.17;64.88;;;;;;;;;;5066746;28;20378;-67
2021/12/15 14:15:49;;;;;;;359.52;70.63;;;;;;;;;;5073564;28;20341;-67
2021/12/15 14:18:18;;;;;;;334.05;69.70;;;;;;;;;;5073493;28;20592;-67
2021/12/15 14:20:47;;;;;;;350.33;70.30;;;;;;;;;;5073310;28;20213;-67
2021/12/15 14:23:16;;;;;;;380.00;71.22;;;;;;;;;;5073200;28;20201;-69
2021/12/15 14:25:43;;;;;;;377.88;72.55;;;;;;;;;;5072779;28;20216;-67
2021/12/15 14:28:12;;;;;;;366.40;69.45;;;;;;;;;;5073455;28;20318;-67
2021/12/15 14:30:42;;;;;;;369.58;70.63;;;;;;;;;;5066328;28;20681;-67
2021/12/15 14:33:20;;;;;;;396.95;75.03;;;;;;;;;;5073190;28;20209;-67
2021/12/15 14:35:48;;;;;;;393.98;77.22;;;;;;;;;;5066194;28;20212;-68
2021/12/15 14:38:15;;;;;;;371.23;70.03;;;;;;;;;;5072788;28;20693;-67
2021/12/15 14:40:43;;;;;;;363.85;69.88;;;;;;;;;;5073122;28;20235;-67
2021/12/15 14:43:12;;;;;;;363.70;69.97;;;;;;;;;;5072829;28;20204;-67
2021/12/15 14:45:41;;;;;;;367.48;70.35;;;;;;;;;;5072678;28;20216;-67
2021/12/15 14:48:17;;;;;;;361.52;71.93;;;;;;;;;;5072608;28;20232;-67
2021/12/15 14:50:46;;;;;;;368.40;72.13;;;;;;;;;;5072663;28;20242;-68
2021/12/15 14:53:14;;;;;;;379.25;73.10;;;;;;;;;;5071389;28;20670;-69
2021/12/15 14:55:41;;;;;;;395.30;73.05;;;;;;;;;;5072611;28;20204;-67
2021/12/15 14:58:09;;;;;;;395.80;73.32;;;;;;;;;;5072586;28;20212;-67
2021/12/15 15:00:38;;;;;;;379.40;72.18;;;;;;;;;;5072662;28;20704;-67
2021/12/15 15:03:07;;;;;;;382.60;72.97;;;;;;;;;;5072331;28;20232;-68
2021/12/15 15:05:35;;;;;;;388.90;73.30;;;;;;;;;;5072684;28;20662;-68
2021/12/15 15:08:07;;;;;;;383.05;71.40;;;;;;;;;;5072283;28;20732;-68
2021/12/15 15:10:35;;;;;;;403.50;74.65;;;;;;;;;;5072535;28;20240;-67
2021/12/15 15:13:03;;;;;;;398.63;72.22;;;;;;;;;;5072359;28;20212;-68
2021/12/15 15:15:33;;;;;;;414.55;76.65;;;;;;;;;;5072297;28;20230;-67
2021/12/15 15:18:05;;;;;;;409.85;74.07;;;;;;;;;;5071847;28;20216;-66
2021/12/15 15:20:34;;;;;;;392.95;70.95;;;;;;;;;;5072473;28;20236;-68
2021/12/15 15:23:03;;;;;;;390.80;72.05;;;;;;;;;;5072198;28;20212;-67
2021/12/15 15:25:32;;;;;;;384.02;72.00;;;;;;;;;;5072088;28;20287;-67
2021/12/15 15:28:02;;;;;;;400.95;74.45;;;;;;;;;;5071635;28;20232;-67